Time;durP1;ratioP1;P1;durP2;ratioP2;P2;SDS_P1;SDS_P2;PMS_P1;PMS_P2;Temp;Humidity;BMP_temperature;BMP_pressure;BME280_temperature;BME280_humidity;BME280_pressure;Samples;Min_cycle;Max_cycle;Signal;HPM_P1;HPM_P2
2021/06/17 00:02:04;;;;;;;12.63;7.28;;;;;;;;;;5071132;28;20431;-76
2021/06/17 00:04:30;;;;;;;9.70;7.15;;;;;;;;;;5069617;28;20024;-76
2021/06/17 00:06:55;;;;;;;9.88;7.63;;;;;;;;;;5069689;28;20029;-76
2021/06/17 00:09:21;;;;;;;11.75;6.43;;;;;;;;;;5070955;28;20027;-76
2021/06/17 00:11:47;;;;;;;10.07;7.10;;;;;;;;;;5069624;28;20036;-76
2021/06/17 00:14:13;;;;;;;9.25;7.25;;;;;;;;;;5069362;28;20077;-76
2021/06/17 00:16:38;;;;;;;9.50;6.78;;;;;;;;;;5070681;28;20478;-75
2021/06/17 00:19:04;;;;;;;11.10;7.15;;;;;;;;;;5070333;28;20032;-76
2021/06/17 00:21:31;;;;;;;8.98;6.68;;;;;;;;;;5069217;28;20021;-77
2021/06/17 00:23:56;;;;;;;10.13;6.72;;;;;;;;;;5068436;28;20040;-76
2021/06/17 00:26:22;;;;;;;11.38;6.85;;;;;;;;;;5071203;28;20387;-75
2021/06/17 00:28:47;;;;;;;13.68;7.40;;;;;;;;;;5068675;28;20182;-76
2021/06/17 00:31:13;;;;;;;9.98;7.22;;;;;;;;;;5069063;28;20061;-77
2021/06/17 00:33:39;;;;;;;10.23;7.15;;;;;;;;;;5068773;28;20021;-76
2021/06/17 00:36:04;;;;;;;12.25;6.85;;;;;;;;;;5070414;28;20492;-76
2021/06/17 00:38:30;;;;;;;13.73;7.85;;;;;;;;;;5068984;28;20488;-76
2021/06/17 00:40:56;;;;;;;8.13;6.65;;;;;;;;;;5069304;28;20055;-75
2021/06/17 00:43:22;;;;;;;9.98;7.68;;;;;;;;;;5069104;28;20029;-76
2021/06/17 00:45:48;;;;;;;9.43;7.00;;;;;;;;;;5068380;28;20035;-75
2021/06/17 00:48:15;;;;;;;8.02;6.57;;;;;;;;;;5068479;28;20048;-77
2021/06/17 00:50:54;;;;;;;11.55;7.13;;;;;;;;;;5052946;28;20090;-75
2021/06/17 00:53:26;;;;;;;8.80;6.57;;;;;;;;;;5070413;28;20481;-75
2021/06/17 00:55:52;;;;;;;10.90;7.10;;;;;;;;;;5068820;28;20472;-76
2021/06/17 00:58:17;;;;;;;10.65;7.43;;;;;;;;;;5069644;28;20024;-77
2021/06/17 01:00:44;;;;;;;13.65;7.47;;;;;;;;;;5069851;28;20020;-76
2021/06/17 01:03:11;;;;;;;6.72;6.00;;;;;;;;;;5069802;28;20052;-77
2021/06/17 01:05:37;;;;;;;9.80;6.90;;;;;;;;;;5070358;28;20024;-76
2021/06/17 01:08:03;;;;;;;12.75;8.30;;;;;;;;;;5069199;28;20070;-77
2021/06/17 01:11:13;;;;;;;9.30;7.80;;;;;;;;;;5068428;28;20020;-76
2021/06/17 01:13:48;;;;;;;10.48;7.85;;;;;;;;;;5067273;28;20063;-77
2021/06/17 01:16:31;;;;;;;9.18;7.40;;;;;;;;;;5068111;28;20097;-76
2021/06/17 01:19:02;;;;;;;8.77;7.40;;;;;;;;;;5067946;28;20020;-76
2021/06/17 01:21:36;;;;;;;9.63;6.82;;;;;;;;;;5052086;28;20119;-76
2021/06/17 01:24:06;;;;;;;9.05;7.28;;;;;;;;;;5069214;28;20020;-76
2021/06/17 01:27:02;;;;;;;12.35;7.38;;;;;;;;;;5069518;28;20116;-76
2021/06/17 01:29:30;;;;;;;11.05;8.10;;;;;;;;;;5069794;28;20028;-77
2021/06/17 01:31:57;;;;;;;14.30;7.28;;;;;;;;;;5069653;28;20388;-76
2021/06/17 01:34:23;;;;;;;11.38;7.43;;;;;;;;;;5069555;28;20552;-76
2021/06/17 01:37:05;;;;;;;12.50;8.23;;;;;;;;;;5067613;28;20045;-76
2021/06/17 01:39:31;;;;;;;11.57;7.82;;;;;;;;;;5067842;28;20057;-76
2021/06/17 01:42:00;;;;;;;11.27;7.45;;;;;;;;;;5068325;28;20504;-76
2021/06/17 01:44:25;;;;;;;11.75;7.82;;;;;;;;;;5068136;28;20030;-76
2021/06/17 01:46:52;;;;;;;11.18;7.75;;;;;;;;;;5069741;28;20103;-75
2021/06/17 01:49:18;;;;;;;11.20;7.43;;;;;;;;;;5068658;28;20017;-76
2021/06/17 01:51:45;;;;;;;15.57;8.02;;;;;;;;;;5067815;28;20063;-77
2021/06/17 01:54:20;;;;;;;10.75;8.65;;;;;;;;;;5069138;28;20031;-75
2021/06/17 01:56:48;;;;;;;9.68;8.05;;;;;;;;;;5067883;28;20071;-76
2021/06/17 01:59:14;;;;;;;9.25;7.97;;;;;;;;;;5068971;28;20099;-75
2021/06/17 02:01:40;;;;;;;13.35;7.97;;;;;;;;;;5067892;28;20413;-75
2021/06/17 02:04:06;;;;;;;10.52;7.28;;;;;;;;;;5067804;28;20064;-75
2021/06/17 02:06:34;;;;;;;13.75;8.63;;;;;;;;;;5068263;28;20055;-77
2021/06/17 02:09:00;;;;;;;11.80;9.35;;;;;;;;;;5068135;28;20123;-76
2021/06/17 02:11:27;;;;;;;12.15;7.95;;;;;;;;;;5068039;28;20044;-76
2021/06/17 02:13:55;;;;;;;12.25;7.82;;;;;;;;;;5069073;28;20024;-76
2021/06/17 02:16:22;;;;;;;11.48;7.65;;;;;;;;;;5067527;28;20116;-77
2021/06/17 02:18:49;;;;;;;10.98;8.13;;;;;;;;;;5067866;28;20385;-75
2021/06/17 02:21:15;;;;;;;13.27;8.18;;;;;;;;;;5067548;28;20020;-76
2021/06/17 02:23:47;;;;;;;13.65;8.02;;;;;;;;;;5034420;28;20037;-76
2021/06/17 02:26:13;;;;;;;13.15;9.38;;;;;;;;;;5069297;28;20104;-76
2021/06/17 02:28:42;;;;;;;10.32;8.48;;;;;;;;;;5068737;28;20143;-76
2021/06/17 02:31:13;;;;;;;12.75;8.40;;;;;;;;;;5051164;28;20055;-77
2021/06/17 02:33:39;;;;;;;11.15;8.80;;;;;;;;;;5069231;28;20029;-76
2021/06/17 02:36:06;;;;;;;13.60;8.32;;;;;;;;;;5067497;28;20029;-76
2021/06/17 02:38:38;;;;;;;9.70;7.75;;;;;;;;;;5068742;28;20028;-77
2021/06/17 02:41:07;;;;;;;11.77;7.70;;;;;;;;;;5068814;28;20129;-77
2021/06/17 02:43:36;;;;;;;13.52;8.80;;;;;;;;;;5069386;28;20035;-75
2021/06/17 02:46:02;;;;;;;11.23;8.20;;;;;;;;;;5066853;28;20032;-74
2021/06/17 02:48:28;;;;;;;14.68;7.85;;;;;;;;;;5053236;28;20034;-77
2021/06/17 02:50:53;;;;;;;12.07;8.43;;;;;;;;;;5072000;28;20095;-76
2021/06/17 02:53:21;;;;;;;12.00;8.73;;;;;;;;;;5071517;28;20028;-76
2021/06/17 02:55:48;;;;;;;20.45;8.98;;;;;;;;;;5054831;28;20039;-75
2021/06/17 02:58:42;;;;;;;16.48;8.85;;;;;;;;;;5070713;28;20036;-76
2021/06/17 03:01:38;;;;;;;13.98;9.00;;;;;;;;;;5069253;28;20040;-75
2021/06/17 03:04:14;;;;;;;13.40;8.63;;;;;;;;;;5070282;28;20020;-76
2021/06/17 03:06:45;;;;;;;9.98;7.97;;;;;;;;;;5070889;28;20139;-76
2021/06/17 03:09:19;;;;;;;16.63;9.48;;;;;;;;;;5071787;28;20393;-76
2021/06/17 03:11:48;;;;;;;18.15;9.63;;;;;;;;;;5071475;28;20472;-76
2021/06/17 03:14:23;;;;;;;13.63;8.65;;;;;;;;;;5071544;28;20770;-76
2021/06/17 03:16:53;;;;;;;17.95;8.88;;;;;;;;;;5072068;28;20433;-76
2021/06/17 03:19:20;;;;;;;17.88;9.05;;;;;;;;;;5072091;28;20491;-75
2021/06/17 03:22:00;;;;;;;19.08;8.60;;;;;;;;;;5071667;28;20032;-76
2021/06/17 03:24:30;;;;;;;14.00;8.73;;;;;;;;;;5071826;28;20058;-74
2021/06/17 03:26:58;;;;;;;14.55;8.63;;;;;;;;;;5069943;28;20389;-77
2021/06/17 03:29:28;;;;;;;15.15;9.18;;;;;;;;;;5054603;28;20040;-77
2021/06/17 03:31:57;;;;;;;11.73;9.27;;;;;;;;;;5078571;28;20034;-76
2021/06/17 03:34:24;;;;;;;19.17;10.13;;;;;;;;;;5072394;28;20021;-76
2021/06/17 03:36:51;;;;;;;14.77;10.07;;;;;;;;;;5070069;28;20024;-75
2021/06/17 03:39:19;;;;;;;10.23;9.02;;;;;;;;;;5069834;28;20469;-75
2021/06/17 03:41:47;;;;;;;14.35;9.63;;;;;;;;;;5071602;28;20024;-75
2021/06/17 03:44:15;;;;;;;19.52;11.52;;;;;;;;;;5069750;28;20028;-75
2021/06/17 03:46:41;;;;;;;17.35;10.13;;;;;;;;;;5070018;28;20029;-76
2021/06/17 03:49:08;;;;;;;15.90;10.85;;;;;;;;;;5070148;28;20514;-77
2021/06/17 03:51:33;;;;;;;31.02;12.20;;;;;;;;;;5071182;28;20048;-76
2021/06/17 03:54:00;;;;;;;15.57;10.07;;;;;;;;;;5070750;28;20480;-76
2021/06/17 03:56:26;;;;;;;16.42;9.77;;;;;;;;;;5069995;28;20028;-76
2021/06/17 03:58:52;;;;;;;14.25;9.75;;;;;;;;;;5071023;28;20029;-76
2021/06/17 04:01:18;;;;;;;15.80;11.70;;;;;;;;;;5070766;28;20035;-76
2021/06/17 04:03:46;;;;;;;16.00;10.15;;;;;;;;;;5069409;28;20020;-77
2021/06/17 04:06:15;;;;;;;23.27;10.40;;;;;;;;;;5069510;28;20055;-75
2021/06/17 04:08:44;;;;;;;16.83;10.40;;;;;;;;;;5070664;28;20071;-75
2021/06/17 04:11:12;;;;;;;16.00;10.20;;;;;;;;;;5069374;28;20024;-76
2021/06/17 04:13:40;;;;;;;12.35;9.98;;;;;;;;;;5069647;28;20036;-75
2021/06/17 04:16:09;;;;;;;18.27;10.48;;;;;;;;;;5069320;28;20020;-76
2021/06/17 04:18:36;;;;;;;25.23;16.58;;;;;;;;;;5069029;28;20038;-77
2021/06/17 04:21:03;;;;;;;14.52;11.05;;;;;;;;;;5068718;28;20031;-77
2021/06/17 04:23:31;;;;;;;13.70;11.98;;;;;;;;;;5071006;28;20039;-77
2021/06/17 04:25:58;;;;;;;12.68;10.65;;;;;;;;;;5070130;28;20064;-75
2021/06/17 04:28:27;;;;;;;20.77;11.18;;;;;;;;;;5069560;28;20021;-76
2021/06/17 04:30:53;;;;;;;16.63;11.30;;;;;;;;;;5070621;28;20020;-76
2021/06/17 04:33:21;;;;;;;14.73;10.70;;;;;;;;;;5069764;28;20037;-78
2021/06/17 04:35:49;;;;;;;12.20;9.63;;;;;;;;;;5069004;28;20028;-77
2021/06/17 04:38:17;;;;;;;17.40;11.30;;;;;;;;;;5068982;28;20398;-76
2021/06/17 04:40:46;;;;;;;17.13;12.65;;;;;;;;;;5070001;28;20050;-74
2021/06/17 04:43:17;;;;;;;13.98;11.32;;;;;;;;;;5068812;28;20028;-75
2021/06/17 04:45:44;;;;;;;25.70;11.75;;;;;;;;;;5069997;28;20051;-76
2021/06/17 04:48:10;;;;;;;22.60;12.38;;;;;;;;;;5069822;28;20439;-76
2021/06/17 04:50:37;;;;;;;14.73;11.07;;;;;;;;;;5069730;28;20031;-76
2021/06/17 04:53:06;;;;;;;16.77;10.95;;;;;;;;;;5068183;28;20028;-75
2021/06/17 04:55:33;;;;;;;17.25;11.60;;;;;;;;;;5070013;28;20020;-76
2021/06/17 04:58:00;;;;;;;25.75;12.30;;;;;;;;;;5051905;28;20052;-77
2021/06/17 05:00:25;;;;;;;23.70;12.10;;;;;;;;;;5072136;28;20029;-75
2021/06/17 05:02:51;;;;;;;20.08;12.45;;;;;;;;;;5068697;28;20579;-76
2021/06/17 05:05:16;;;;;;;22.00;12.13;;;;;;;;;;5067778;28;20462;-76
2021/06/17 05:12:56;;;;;;;29.00;11.43;;;;;;;;;;5072200;28;20090;-76
2021/06/17 05:15:21;;;;;;;25.10;11.00;;;;;;;;;;5071734;28;20056;-77
2021/06/17 05:17:47;;;;;;;21.25;10.82;;;;;;;;;;5069118;28;20134;-76
2021/06/17 05:20:14;;;;;;;17.33;10.45;;;;;;;;;;5069498;28;20012;-77
2021/06/17 05:22:42;;;;;;;16.20;11.13;;;;;;;;;;5070243;28;20031;-77
2021/06/17 05:25:08;;;;;;;19.95;12.10;;;;;;;;;;5067858;28;20527;-78
2021/06/17 05:27:36;;;;;;;21.55;11.85;;;;;;;;;;5069793;28;20081;-76
2021/06/17 05:30:05;;;;;;;19.23;11.05;;;;;;;;;;5051563;28;20028;-76
2021/06/17 05:32:31;;;;;;;18.52;10.80;;;;;;;;;;5069640;28;20020;-76
2021/06/17 05:34:56;;;;;;;20.02;9.82;;;;;;;;;;5068037;28;20094;-77
2021/06/17 05:37:22;;;;;;;19.23;10.15;;;;;;;;;;5068204;28;20074;-77
2021/06/17 05:39:47;;;;;;;21.45;10.85;;;;;;;;;;5067341;28;20133;-77
2021/06/17 05:42:13;;;;;;;22.77;11.05;;;;;;;;;;5069640;28;20388;-77
2021/06/17 05:44:38;;;;;;;19.65;10.05;;;;;;;;;;5068912;28;20029;-76
2021/06/17 05:47:04;;;;;;;22.58;11.38;;;;;;;;;;5062921;28;20059;-76
2021/06/17 05:49:31;;;;;;;17.13;10.40;;;;;;;;;;5067056;28;20111;-77
2021/06/17 05:51:57;;;;;;;14.82;10.07;;;;;;;;;;5067100;28;20028;-76
2021/06/17 05:54:23;;;;;;;15.60;11.10;;;;;;;;;;5067062;28;20345;-77
2021/06/17 05:56:49;;;;;;;17.20;11.38;;;;;;;;;;5067200;28;20380;-76
2021/06/17 05:59:17;;;;;;;22.55;13.02;;;;;;;;;;5068099;28;20029;-76
2021/06/17 06:01:43;;;;;;;18.98;10.90;;;;;;;;;;5061744;28;20091;-74
2021/06/17 06:04:08;;;;;;;20.45;11.77;;;;;;;;;;5058781;28;20034;-75
2021/06/17 06:06:34;;;;;;;19.73;12.13;;;;;;;;;;5061780;28;20029;-75
2021/06/17 06:09:03;;;;;;;18.80;12.02;;;;;;;;;;5058481;28;20506;-76
2021/06/17 06:11:30;;;;;;;23.38;11.90;;;;;;;;;;5039328;28;20024;-77
2021/06/17 06:13:55;;;;;;;18.52;11.45;;;;;;;;;;5068608;28;20024;-76
2021/06/17 06:16:21;;;;;;;22.73;12.32;;;;;;;;;;5056639;28;20048;-76
2021/06/17 06:18:47;;;;;;;23.60;10.93;;;;;;;;;;5057192;28;20039;-77
2021/06/17 06:21:12;;;;;;;22.02;11.45;;;;;;;;;;5056923;28;20131;-75
2021/06/17 06:23:38;;;;;;;21.13;11.55;;;;;;;;;;5056593;28;20032;-76
2021/06/17 06:26:03;;;;;;;22.20;10.90;;;;;;;;;;5060862;28;20105;-75
2021/06/17 06:28:31;;;;;;;18.08;10.50;;;;;;;;;;5068658;28;20059;-75
2021/06/17 06:30:56;;;;;;;15.90;9.68;;;;;;;;;;5055599;28;20051;-75
2021/06/17 06:33:22;;;;;;;19.10;9.38;;;;;;;;;;5062948;28;20067;-75
2021/06/17 06:35:48;;;;;;;14.85;8.75;;;;;;;;;;5062640;28;20090;-76
2021/06/17 06:38:15;;;;;;;11.65;8.85;;;;;;;;;;5064003;28;20039;-76
2021/06/17 06:40:41;;;;;;;21.55;9.43;;;;;;;;;;5064269;28;20053;-76
2021/06/17 06:43:08;;;;;;;16.05;8.95;;;;;;;;;;5065976;28;20020;-75
2021/06/17 06:45:35;;;;;;;9.82;8.32;;;;;;;;;;5065113;28;20068;-76
2021/06/17 06:48:02;;;;;;;13.80;8.90;;;;;;;;;;5066205;28;20028;-75
2021/06/17 06:50:28;;;;;;;18.27;9.00;;;;;;;;;;5063343;28;20023;-76
2021/06/17 06:52:53;;;;;;;20.73;9.43;;;;;;;;;;5065711;28;20028;-77
2021/06/17 06:55:19;;;;;;;17.33;9.75;;;;;;;;;;5064997;28;20081;-77
2021/06/17 06:57:46;;;;;;;18.45;10.18;;;;;;;;;;5064440;28;20533;-76
2021/06/17 07:00:13;;;;;;;13.85;8.45;;;;;;;;;;5063041;28;20033;-76
2021/06/17 07:02:39;;;;;;;14.57;8.25;;;;;;;;;;5048225;28;20028;-76
2021/06/17 07:05:06;;;;;;;13.50;8.10;;;;;;;;;;5063750;28;20031;-78
2021/06/17 07:07:32;;;;;;;19.65;9.25;;;;;;;;;;5059733;28;20043;-76
2021/06/17 07:09:57;;;;;;;13.95;9.50;;;;;;;;;;5059823;28;20036;-75
2021/06/17 07:12:23;;;;;;;17.23;8.32;;;;;;;;;;5063640;28;20063;-78
2021/06/17 07:14:49;;;;;;;13.57;9.15;;;;;;;;;;5066427;28;20020;-75
2021/06/17 07:17:15;;;;;;;14.45;9.32;;;;;;;;;;5063441;28;20036;-74
2021/06/17 07:19:41;;;;;;;15.80;9.15;;;;;;;;;;5063191;28;20036;-76
2021/06/17 07:22:07;;;;;;;19.85;10.07;;;;;;;;;;5059297;28;20025;-76
2021/06/17 07:24:34;;;;;;;18.10;8.73;;;;;;;;;;5062995;28;20067;-77
2021/06/17 07:26:59;;;;;;;19.08;10.05;;;;;;;;;;5062580;28;20059;-77
2021/06/17 07:29:25;;;;;;;20.88;8.88;;;;;;;;;;5062029;28;20027;-76
2021/06/17 07:31:51;;;;;;;9.77;7.85;;;;;;;;;;5062194;28;20020;-75
2021/06/17 07:34:16;;;;;;;14.57;8.48;;;;;;;;;;5064048;28;20042;-76
2021/06/17 07:36:43;;;;;;;19.05;9.15;;;;;;;;;;5064028;28;20111;-77
2021/06/17 07:39:11;;;;;;;22.00;7.88;;;;;;;;;;5062980;28;20056;-79
2021/06/17 07:41:38;;;;;;;12.43;8.02;;;;;;;;;;5060607;28;20036;-76
2021/06/17 07:44:04;;;;;;;16.63;7.72;;;;;;;;;;5041216;28;20090;-77
2021/06/17 07:46:31;;;;;;;12.02;7.03;;;;;;;;;;5049311;28;20137;-78
2021/06/17 07:48:59;;;;;;;18.70;8.13;;;;;;;;;;5062669;28;20024;-76
2021/06/17 07:51:29;;;;;;;11.32;7.63;;;;;;;;;;5058365;28;20021;-76
2021/06/17 07:53:59;;;;;;;16.70;8.05;;;;;;;;;;5060149;28;20025;-75
2021/06/17 07:56:26;;;;;;;12.43;8.25;;;;;;;;;;5062957;28;20342;-76
2021/06/17 07:58:52;;;;;;;16.77;8.55;;;;;;;;;;5062873;28;20369;-76
2021/06/17 08:01:17;;;;;;;14.38;8.15;;;;;;;;;;5058737;28;20032;-75
2021/06/17 08:03:50;;;;;;;13.05;8.32;;;;;;;;;;5062806;28;20040;-76
2021/06/17 08:06:17;;;;;;;16.42;7.78;;;;;;;;;;5060234;28;20502;-75
2021/06/17 08:08:43;;;;;;;13.38;8.02;;;;;;;;;;5061492;28;20416;-76
2021/06/17 08:11:09;;;;;;;15.90;7.72;;;;;;;;;;5060109;28;20098;-76
2021/06/17 08:13:35;;;;;;;11.43;8.40;;;;;;;;;;5054648;28;20028;-75
2021/06/17 08:16:00;;;;;;;15.25;7.75;;;;;;;;;;5058692;28;20031;-77
2021/06/17 08:18:26;;;;;;;14.73;6.40;;;;;;;;;;5061070;28;20052;-76
2021/06/17 08:20:58;;;;;;;16.08;6.43;;;;;;;;;;5062075;28;20321;-75
2021/06/17 08:23:25;;;;;;;17.73;7.13;;;;;;;;;;5062341;28;20036;-77
2021/06/17 08:25:58;;;;;;;8.38;6.82;;;;;;;;;;5065219;28;20340;-77
2021/06/17 08:28:26;;;;;;;9.13;5.85;;;;;;;;;;5076088;28;20075;-76
2021/06/17 08:30:52;;;;;;;17.30;5.40;;;;;;;;;;5058790;28;20398;-75
2021/06/17 08:33:18;;;;;;;8.15;4.82;;;;;;;;;;5060743;28;20036;-77
2021/06/17 08:35:44;;;;;;;10.93;5.38;;;;;;;;;;5062907;28;20117;-77
2021/06/17 08:38:10;;;;;;;11.35;4.95;;;;;;;;;;5060955;28;20588;-76
2021/06/17 08:40:36;;;;;;;12.13;6.15;;;;;;;;;;5065819;28;20114;-77
2021/06/17 08:43:04;;;;;;;12.27;5.72;;;;;;;;;;5066201;28;20119;-75
2021/06/17 08:45:30;;;;;;;8.40;5.68;;;;;;;;;;5029907;28;20070;-75
2021/06/17 08:47:56;;;;;;;6.47;3.63;;;;;;;;;;4999780;28;20133;-76
2021/06/17 08:50:22;;;;;;;4.97;3.53;;;;;;;;;;4994213;28;20119;-76
2021/06/17 08:52:48;;;;;;;6.47;4.03;;;;;;;;;;5016681;28;20123;-76
2021/06/17 08:55:20;;;;;;;5.32;3.38;;;;;;;;;;5000163;28;20100;-77
2021/06/17 08:57:50;;;;;;;4.32;3.50;;;;;;;;;;5000351;28;20076;-76
2021/06/17 09:00:15;;;;;;;8.53;4.07;;;;;;;;;;5013550;28;20042;-77
2021/06/17 09:02:44;;;;;;;6.07;3.53;;;;;;;;;;5002228;28;20034;-77
2021/06/17 09:05:16;;;;;;;8.15;3.80;;;;;;;;;;5017403;28;20084;-77
2021/06/17 09:07:43;;;;;;;6.18;4.03;;;;;;;;;;5016833;28;20089;-76
2021/06/17 09:10:10;;;;;;;6.22;3.33;;;;;;;;;;5010760;28;20143;-75
2021/06/17 09:13:03;;;;;;;9.23;3.45;;;;;;;;;;4999743;28;20032;-78
2021/06/17 09:15:33;;;;;;;6.32;3.10;;;;;;;;;;4999031;28;20041;-78
2021/06/17 09:18:08;;;;;;;7.50;3.15;;;;;;;;;;5001376;28;20560;-76
2021/06/17 09:20:36;;;;;;;5.80;3.90;;;;;;;;;;5013208;28;20125;-78
2021/06/17 09:23:28;;;;;;;3.72;2.97;;;;;;;;;;5008410;28;20030;-75
2021/06/17 09:25:59;;;;;;;7.32;3.05;;;;;;;;;;5016171;28;20073;-77
2021/06/17 09:31:37;;;;;;;7.32;2.90;;;;;;;;;;4999300;28;20026;-78
2021/06/17 09:34:10;;;;;;;4.88;2.88;;;;;;;;;;4998361;28;20038;-79
2021/06/17 09:36:39;;;;;;;7.88;3.55;;;;;;;;;;4988751;28;20403;-77
2021/06/17 09:39:19;;;;;;;6.10;3.00;;;;;;;;;;4998415;28;20037;-75
2021/06/17 09:41:49;;;;;;;5.38;3.47;;;;;;;;;;5012500;28;20843;-75
2021/06/17 09:44:31;;;;;;;6.57;3.70;;;;;;;;;;5004216;28;20386;-77
2021/06/17 09:47:11;;;;;;;5.13;3.35;;;;;;;;;;5001257;28;20279;-77
2021/06/17 09:49:43;;;;;;;5.80;3.00;;;;;;;;;;4997441;28;20327;-78
2021/06/17 09:52:10;;;;;;;15.15;4.63;;;;;;;;;;5001051;28;20041;-78
2021/06/17 09:54:39;;;;;;;7.32;2.90;;;;;;;;;;5013228;28;20044;-77
2021/06/17 09:57:18;;;;;;;4.13;3.10;;;;;;;;;;5021241;28;20040;-78
2021/06/17 09:59:54;;;;;;;5.10;3.60;;;;;;;;;;4995464;28;20071;-76
2021/06/17 10:02:35;;;;;;;6.80;3.17;;;;;;;;;;5003057;28;20034;-78
2021/06/17 10:05:31;;;;;;;10.18;3.40;;;;;;;;;;5009835;28;20029;-77
2021/06/17 10:07:58;;;;;;;5.90;3.08;;;;;;;;;;5007305;28;20034;-78
2021/06/17 10:10:29;;;;;;;5.63;3.67;;;;;;;;;;5003507;28;20045;-74
2021/06/17 10:12:55;;;;;;;5.45;3.63;;;;;;;;;;5008570;28;20025;-77
2021/06/17 10:15:21;;;;;;;10.40;3.50;;;;;;;;;;5022005;28;20033;-76
2021/06/17 10:17:50;;;;;;;4.22;3.38;;;;;;;;;;4999411;28;20497;-75
2021/06/17 10:20:16;;;;;;;6.75;3.45;;;;;;;;;;5000824;28;20045;-75
2021/06/17 10:22:43;;;;;;;6.72;4.00;;;;;;;;;;5006985;28;20030;-78
2021/06/17 10:25:23;;;;;;;7.90;4.30;;;;;;;;;;5023914;28;20049;-77
2021/06/17 10:27:50;;;;;;;12.35;4.00;;;;;;;;;;5007703;28;20030;-77
2021/06/17 10:30:33;;;;;;;6.20;3.78;;;;;;;;;;5021079;28;20026;-78
2021/06/17 10:33:01;;;;;;;5.63;3.30;;;;;;;;;;5002539;28;20023;-76
2021/06/17 10:35:27;;;;;;;6.10;2.83;;;;;;;;;;5020046;28;20030;-76
2021/06/17 10:38:06;;;;;;;4.57;2.83;;;;;;;;;;5004711;28;20037;-78
2021/06/17 10:40:35;;;;;;;5.72;3.08;;;;;;;;;;4999818;28;20041;-78
2021/06/17 10:43:19;;;;;;;5.45;2.70;;;;;;;;;;5017546;28;20613;-76
2021/06/17 10:45:46;;;;;;;7.30;3.33;;;;;;;;;;5001744;28;20107;-75
2021/06/17 10:48:22;;;;;;;7.28;2.85;;;;;;;;;;5017711;28;20037;-77
2021/06/17 10:50:53;;;;;;;12.18;2.58;;;;;;;;;;5013540;28;20088;-77
2021/06/17 10:53:35;;;;;;;6.22;2.83;;;;;;;;;;5008656;28;20030;-76
2021/06/17 10:56:16;;;;;;;13.77;2.80;;;;;;;;;;4996045;28;20045;-78
2021/06/17 10:58:44;;;;;;;6.00;2.70;;;;;;;;;;5002393;28;20053;-76
2021/06/17 11:01:31;;;;;;;7.63;2.63;;;;;;;;;;5001657;28;20103;-77
2021/06/17 11:04:21;;;;;;;16.08;2.83;;;;;;;;;;5002585;28;20133;-79
2021/06/17 11:06:52;;;;;;;6.85;2.60;;;;;;;;;;5002104;28;20030;-75
2021/06/17 11:09:37;;;;;;;5.75;2.75;;;;;;;;;;5018736;28;20403;-77
2021/06/17 11:12:25;;;;;;;3.40;2.15;;;;;;;;;;5004916;28;20041;-76
2021/06/17 11:14:56;;;;;;;6.63;2.60;;;;;;;;;;5001118;28;20109;-77
2021/06/17 11:17:32;;;;;;;4.20;2.45;;;;;;;;;;5005005;28;20092;-76
2021/06/17 11:20:08;;;;;;;5.22;2.80;;;;;;;;;;5008316;28;20483;-76
2021/06/17 11:22:45;;;;;;;6.93;3.10;;;;;;;;;;5002316;28;20033;-76
2021/06/17 11:25:20;;;;;;;8.82;2.67;;;;;;;;;;5000748;28;20038;-76
2021/06/17 11:27:58;;;;;;;6.82;2.83;;;;;;;;;;5002485;28;20693;-79
2021/06/17 11:30:46;;;;;;;3.33;2.85;;;;;;;;;;5019230;28;20025;-77
2021/06/17 11:33:17;;;;;;;7.93;2.45;;;;;;;;;;5002678;28;20033;-77
2021/06/17 11:36:10;;;;;;;3.13;2.45;;;;;;;;;;5012228;28;20056;-75
2021/06/17 11:38:38;;;;;;;8.13;2.40;;;;;;;;;;5010120;28;20030;-76
2021/06/17 11:41:17;;;;;;;6.68;2.70;;;;;;;;;;5015424;28;20634;-78
2021/06/17 11:43:43;;;;;;;7.28;3.05;;;;;;;;;;5000950;28;20041;-77
2021/06/17 11:46:27;;;;;;;7.70;3.17;;;;;;;;;;5000591;28;20117;-76
2021/06/17 11:48:55;;;;;;;5.63;3.13;;;;;;;;;;5001142;28;20072;-75
2021/06/17 11:51:20;;;;;;;12.63;2.97;;;;;;;;;;5000882;28;20562;-77
2021/06/17 11:53:51;;;;;;;5.95;3.03;;;;;;;;;;4996128;28;20097;-76
2021/06/17 11:56:27;;;;;;;7.10;3.03;;;;;;;;;;5000405;28;20594;-75
2021/06/17 11:58:52;;;;;;;4.13;2.47;;;;;;;;;;5014273;28;20033;-75
2021/06/17 12:01:18;;;;;;;10.43;2.50;;;;;;;;;;4997029;28;20068;-76
2021/06/17 12:04:01;;;;;;;5.53;3.03;;;;;;;;;;4992129;28;20072;-77
2021/06/17 12:06:32;;;;;;;3.38;2.72;;;;;;;;;;5005398;28;20041;-76
2021/06/17 12:09:03;;;;;;;3.70;2.53;;;;;;;;;;4999385;28;20072;-76
2021/06/17 12:11:28;;;;;;;;;;;;;;;;;;5001377;28;20025;-78
2021/06/17 12:13:55;;;;;;;6.05;2.28;;;;;;;;;;4998399;28;19951;-77
2021/06/17 12:16:21;;;;;;;11.60;5.85;;;;;;;;;;4998792;28;20113;-76
2021/06/17 12:18:47;;;;;;;4.25;3.00;;;;;;;;;;5017701;28;20030;-77
2021/06/17 12:21:29;;;;;;;11.65;2.10;;;;;;;;;;5001206;28;20131;-78
2021/06/17 12:24:47;;;;;;;5.22;2.58;;;;;;;;;;4996650;28;20060;-76
2021/06/17 12:30:45;;;;;;;6.85;2.88;;;;;;;;;;4936778;28;20045;-76
2021/06/17 12:33:12;;;;;;;2.60;2.40;;;;;;;;;;4999427;28;20142;-76
2021/06/17 12:36:03;;;;;;;2.80;1.98;;;;;;;;;;4999968;28;20040;-77
2021/06/17 12:38:38;;;;;;;7.55;2.63;;;;;;;;;;5016473;28;20030;-77
2021/06/17 12:41:17;;;;;;;4.15;2.60;;;;;;;;;;4999393;28;20049;-76
2021/06/17 12:43:52;;;;;;;3.47;2.58;;;;;;;;;;4995321;28;20042;-76
2021/06/17 12:46:31;;;;;;;6.88;2.20;;;;;;;;;;4998903;28;20030;-77
2021/06/17 12:54:22;;;;;;;5.70;2.22;;;;;;;;;;5000869;28;20378;-76
2021/06/17 12:57:18;;;;;;;8.63;2.53;;;;;;;;;;5000106;28;20029;-75
2021/06/17 13:00:02;;;;;;;7.10;3.28;;;;;;;;;;4999970;28;20078;-76
2021/06/17 13:02:27;;;;;;;6.65;2.60;;;;;;;;;;5000506;28;20037;-75
2021/06/17 13:05:04;;;;;;;9.98;2.65;;;;;;;;;;4994321;28;20144;-74
2021/06/17 13:07:30;;;;;;;6.65;2.95;;;;;;;;;;4996839;28;20034;-75
2021/06/17 13:10:16;;;;;;;7.95;2.17;;;;;;;;;;5001651;28;20087;-78
2021/06/17 13:12:44;;;;;;;5.40;2.35;;;;;;;;;;4997916;28;20085;-76
2021/06/17 13:15:25;;;;;;;6.78;2.35;;;;;;;;;;5016231;28;20030;-76
2021/06/17 13:18:03;;;;;;;5.65;2.50;;;;;;;;;;5012269;28;20026;-77
2021/06/17 13:20:35;;;;;;;4.45;1.88;;;;;;;;;;4998675;28;20064;-77
2021/06/17 13:23:09;;;;;;;16.00;2.08;;;;;;;;;;5005507;28;20033;-77
2021/06/17 13:25:36;;;;;;;6.50;2.40;;;;;;;;;;4997591;28;20029;-77
2021/06/17 13:28:23;;;;;;;5.70;2.08;;;;;;;;;;5002998;28;20026;-77
2021/06/17 13:30:49;;;;;;;6.95;1.90;;;;;;;;;;5005598;28;20602;-75
2021/06/17 13:33:15;;;;;;;2.17;1.77;;;;;;;;;;5018194;28;20050;-78
2021/06/17 13:35:40;;;;;;;5.63;2.17;;;;;;;;;;4996199;28;20041;-78
2021/06/17 13:38:06;;;;;;;3.58;1.80;;;;;;;;;;4999196;28;20033;-76
2021/06/17 13:40:31;;;;;;;6.00;2.00;;;;;;;;;;5002777;28;20414;-77
2021/06/17 13:42:59;;;;;;;38.70;3.20;;;;;;;;;;4990937;28;20046;-78
2021/06/17 13:45:26;;;;;;;20.25;2.75;;;;;;;;;;5000230;28;20049;-76
2021/06/17 13:47:56;;;;;;;15.52;2.40;;;;;;;;;;5004097;28;20474;-77
2021/06/17 13:50:24;;;;;;;7.05;2.40;;;;;;;;;;4996158;28;20105;-77
2021/06/17 13:52:49;;;;;;;7.32;2.35;;;;;;;;;;4998537;28;20027;-78
2021/06/17 13:55:16;;;;;;;5.53;2.08;;;;;;;;;;4998759;28;20093;-77
2021/06/17 13:57:46;;;;;;;12.23;2.35;;;;;;;;;;5000517;28;20105;-77
2021/06/17 14:00:14;;;;;;;15.63;2.72;;;;;;;;;;4997664;28;20382;-75
2021/06/17 14:02:45;;;;;;;5.80;2.00;;;;;;;;;;5016433;28;20029;-75
2021/06/17 14:05:12;;;;;;;2.67;1.63;;;;;;;;;;5005698;28;20037;-77
2021/06/17 14:07:38;;;;;;;2.38;1.95;;;;;;;;;;5006209;28;20075;-76
2021/06/17 14:10:08;;;;;;;8.30;2.22;;;;;;;;;;5011393;28;20030;-77
2021/06/17 14:12:37;;;;;;;15.20;2.22;;;;;;;;;;5007332;28;20088;-76
2021/06/17 14:15:04;;;;;;;;;;;;;;;;;;5013642;28;20403;-76
2021/06/17 14:17:29;;;;;;;3.72;2.03;;;;;;;;;;4997797;28;20000;-77
2021/06/17 14:19:55;;;;;;;2.92;1.70;;;;;;;;;;4999548;28;20570;-77
2021/06/17 14:22:20;;;;;;;7.78;1.95;;;;;;;;;;4996504;28;20030;-76
2021/06/17 14:24:46;;;;;;;3.92;1.65;;;;;;;;;;4997440;28;20451;-76
2021/06/17 14:27:12;;;;;;;5.47;1.60;;;;;;;;;;4993501;28;20433;-76
2021/06/17 14:29:38;;;;;;;7.10;2.25;;;;;;;;;;4997039;28;20030;-76
2021/06/17 14:32:04;;;;;;;9.00;1.83;;;;;;;;;;4996616;28;20077;-77
2021/06/17 14:34:30;;;;;;;3.85;2.00;;;;;;;;;;5004836;28;20220;-77
2021/06/17 14:36:56;;;;;;;5.78;1.83;;;;;;;;;;5016440;28;20025;-76
2021/06/17 14:39:21;;;;;;;2.72;1.55;;;;;;;;;;5015585;28;20069;-75
2021/06/17 14:41:47;;;;;;;4.28;1.70;;;;;;;;;;4999066;28;20634;-78
2021/06/17 14:44:16;;;;;;;8.00;2.13;;;;;;;;;;5003026;28;20046;-76
2021/06/17 14:46:46;;;;;;;8.52;1.80;;;;;;;;;;5001943;28;20118;-76
2021/06/17 14:49:12;;;;;;;7.07;1.55;;;;;;;;;;4999209;28;20035;-76
2021/06/17 14:51:37;;;;;;;2.70;1.52;;;;;;;;;;5000911;28;20025;-77
2021/06/17 14:54:04;;;;;;;5.60;1.80;;;;;;;;;;4994278;28;20037;-76
2021/06/17 14:56:29;;;;;;;1.63;1.50;;;;;;;;;;5018490;28;20046;-76
2021/06/17 14:58:55;;;;;;;8.02;2.50;;;;;;;;;;5004444;28;20072;-76
2021/06/17 15:01:21;;;;;;;5.22;1.88;;;;;;;;;;5015513;28;20042;-75
2021/06/17 15:03:48;;;;;;;4.85;2.20;;;;;;;;;;5001641;28;20045;-76
2021/06/17 15:06:15;;;;;;;3.08;2.30;;;;;;;;;;5025292;28;20049;-77